createdAt,value
2019-03-20T00:01:43.232Z,60.13
2019-03-20T00:04:03.027Z,69.30
2019-03-20T00:06:31.233Z,64.87
2019-03-20T00:09:02.099Z,61.47
2019-03-20T00:11:32.711Z,65.17
2019-03-20T00:14:03.022Z,63.70
2019-03-20T00:16:31.274Z,65.43
2019-03-20T00:18:59.475Z,87.57
2019-03-20T00:21:30.194Z,133.53
2019-03-20T00:24:02.990Z,95.07
2019-03-20T00:26:33.747Z,93.30
2019-03-20T00:29:06.496Z,107.30
2019-03-20T00:31:37.919Z,95.67
2019-03-20T00:34:06.258Z,94.93
2019-03-20T00:36:39.034Z,96.30
2019-03-20T00:39:07.187Z,82.50
2019-03-20T00:41:40.090Z,75.07
2019-03-20T00:44:10.716Z,54.23
2019-03-20T00:46:38.864Z,52.57
2019-03-20T00:49:09.387Z,63.13
2019-03-20T00:51:41.827Z,55.17
2019-03-20T00:54:14.577Z,53.97
2019-03-20T00:56:47.103Z,62.83
2019-03-20T00:59:15.362Z,66.10
2019-03-20T01:01:45.845Z,71.33
2019-03-20T01:04:13.983Z,82.63
2019-03-20T01:06:44.625Z,82.47
2019-03-20T01:09:15.208Z,73.00
2019-03-20T01:11:43.685Z,70.27
2019-03-20T01:14:14.250Z,73.90
2019-03-20T01:16:47.273Z,60.33
2019-03-20T01:19:15.411Z,64.47
2019-03-20T01:21:46.065Z,63.93
2019-03-20T01:24:14.377Z,53.70
2019-03-20T01:26:47.000Z,55.13
2019-03-20T01:29:15.196Z,54.93
2019-03-20T01:31:45.779Z,59.80
2019-03-20T01:34:15.063Z,54.97
2019-03-20T01:36:43.304Z,52.43
2019-03-20T01:39:11.444Z,48.43
2019-03-20T01:41:41.961Z,52.13
2019-03-20T01:44:10.185Z,50.90
2019-03-20T01:46:40.647Z,51.47
2019-03-20T01:49:15.705Z,73.77
2019-03-20T01:51:43.930Z,69.30
2019-03-20T01:54:12.314Z,70.87
2019-03-20T01:56:45.373Z,71.37
2019-03-20T01:59:13.753Z,77.17
2019-03-20T02:01:44.372Z,76.53
2019-03-20T02:04:19.110Z,63.33
2019-03-20T02:06:49.914Z,60.73
2019-03-20T02:09:20.528Z,64.97
2019-03-20T02:11:53.358Z,60.33
2019-03-20T02:14:24.000Z,66.27
2019-03-20T02:16:52.257Z,56.03
2019-03-20T02:19:22.838Z,49.60
2019-03-20T02:21:51.027Z,38.63
2019-03-20T02:24:21.590Z,43.63
2019-03-20T02:26:49.968Z,39.40
2019-03-20T02:29:20.703Z,43.27
2019-03-20T02:31:59.946Z,50.77
2019-03-20T02:34:32.575Z,57.97
2019-03-20T02:37:01.647Z,39.30
2019-03-20T02:39:32.284Z,37.90
2019-03-20T02:42:00.430Z,41.87
2019-03-20T02:44:33.550Z,42.13
2019-03-20T02:47:01.794Z,54.40
2019-03-20T02:49:29.960Z,45.77
2019-03-20T02:52:00.464Z,42.33
2019-03-20T02:54:28.610Z,47.57
2019-03-20T02:56:56.803Z,44.80
2019-03-20T02:59:24.996Z,36.80
2019-03-20T03:01:53.363Z,34.50
2019-03-20T03:04:26.060Z,43.53
2019-03-20T03:06:54.319Z,43.27
2019-03-20T03:09:22.532Z,36.83
2019-03-20T03:11:53.196Z,49.50
2019-03-20T03:14:21.563Z,48.70
2019-03-20T03:16:52.065Z,66.83
2019-03-20T03:19:22.625Z,58.13
2019-03-20T03:21:50.828Z,42.33
2019-03-20T03:24:21.400Z,54.37
2019-03-20T03:26:51.919Z,49.43
2019-03-20T03:29:22.540Z,49.67
2019-03-20T03:31:53.097Z,47.30
2019-03-20T03:34:21.297Z,40.10
2019-03-20T03:36:51.861Z,44.13
2019-03-20T03:39:23.309Z,42.77
2019-03-20T03:41:53.947Z,42.63
2019-03-20T03:44:24.507Z,47.77
2019-03-20T03:46:54.592Z,44.93
2019-03-20T03:49:25.057Z,49.17
2019-03-20T03:51:55.733Z,49.50
2019-03-20T03:54:24.002Z,52.13
2019-03-20T03:56:52.276Z,49.83
2019-03-20T03:59:22.928Z,44.70
2019-03-20T04:01:53.642Z,51.73
2019-03-20T04:04:24.170Z,61.37
2019-03-20T04:06:54.842Z,58.07
2019-03-20T04:09:23.011Z,60.30
2019-03-20T04:11:51.216Z,58.60
2019-03-20T04:14:19.404Z,54.00
2019-03-20T04:16:47.585Z,53.37
2019-03-20T04:19:15.869Z,50.87
2019-03-20T04:21:44.212Z,62.10
2019-03-20T04:24:19.176Z,81.83
2019-03-20T04:26:52.110Z,94.17
2019-03-20T04:29:22.707Z,82.97
2019-03-20T04:31:50.889Z,84.63
2019-03-20T04:34:19.274Z,88.83
2019-03-20T04:36:52.084Z,95.03
2019-03-20T04:39:22.711Z,66.63
2019-03-20T04:41:54.216Z,81.10
2019-03-20T04:44:22.481Z,73.70
2019-03-20T04:46:52.901Z,63.73
2019-03-20T04:49:25.580Z,48.67
2019-03-20T04:51:58.261Z,57.43
2019-03-20T04:54:28.927Z,56.47
2019-03-20T04:56:57.173Z,51.97
2019-03-20T04:59:25.413Z,45.40
2019-03-20T05:01:53.605Z,51.67
2019-03-20T05:04:21.884Z,46.87
2019-03-20T05:06:58.844Z,39.33
2019-03-20T05:09:24.670Z,42.93
2019-03-20T05:11:52.977Z,41.20
2019-03-20T05:14:21.364Z,43.07
2019-03-20T05:17:00.638Z,40.43
2019-03-20T05:19:28.783Z,38.93
2019-03-20T05:21:57.139Z,48.60
2019-03-20T05:24:27.462Z,42.90
2019-03-20T05:26:58.108Z,42.23
2019-03-20T05:29:26.388Z,42.40
2019-03-20T05:31:54.540Z,50.90
2019-03-20T05:34:22.726Z,54.70
2019-03-20T05:36:53.204Z,54.30
2019-03-20T05:39:23.638Z,55.00
2019-03-20T05:42:00.694Z,55.10
2019-03-20T05:44:29.887Z,55.60
2019-03-20T05:47:00.471Z,55.40
2019-03-20T05:49:30.951Z,58.83
2019-03-20T05:51:59.184Z,58.10
2019-03-20T05:54:29.737Z,58.43
2019-03-20T05:57:00.247Z,56.33
2019-03-20T05:59:30.807Z,70.07
2019-03-20T06:02:01.325Z,78.70
2019-03-20T06:04:34.071Z,99.43
2019-03-20T06:07:02.319Z,92.83
2019-03-20T06:09:36.782Z,102.17
2019-03-20T06:12:04.939Z,109.17
2019-03-20T06:14:35.250Z,271.30
2019-03-20T06:17:05.773Z,346.47
2019-03-20T06:19:36.297Z,279.80
2019-03-20T06:22:06.916Z,182.00
2019-03-20T06:24:35.193Z,264.30
2019-03-20T06:27:05.708Z,207.17
2019-03-20T06:29:36.329Z,153.93
2019-03-20T06:32:06.786Z,209.27
2019-03-20T06:34:37.614Z,231.50
2019-03-20T06:37:05.816Z,168.17
2019-03-20T06:39:34.596Z,133.87
2019-03-20T06:42:04.808Z,161.83
2019-03-20T06:44:33.075Z,172.80
2019-03-20T06:47:04.292Z,337.10
2019-03-20T06:49:32.595Z,208.07
2019-03-20T06:52:00.862Z,81.63
2019-03-20T06:54:31.519Z,56.13
2019-03-20T06:57:02.016Z,55.37
2019-03-20T06:59:37.261Z,46.13
2019-03-20T07:02:10.349Z,34.63
2019-03-20T07:04:47.534Z,82.70
2019-03-20T07:07:25.760Z,42.13
2019-03-20T07:10:03.951Z,36.20
2019-03-20T07:12:32.558Z,35.80
2019-03-20T07:15:03.823Z,31.80
2019-03-20T07:17:34.626Z,30.27
2019-03-20T07:20:04.188Z,33.67
2019-03-20T07:22:34.740Z,35.10
2019-03-20T07:25:05.909Z,51.47
2019-03-20T07:27:39.192Z,39.40
2019-03-20T07:30:08.979Z,31.77
2019-03-20T07:32:41.874Z,40.40
2019-03-20T07:35:12.280Z,38.77
2019-03-20T07:37:40.507Z,53.93
2019-03-20T07:40:09.161Z,58.10
2019-03-20T07:42:37.737Z,52.00
2019-03-20T07:45:07.834Z,39.83
2019-03-20T07:47:37.502Z,50.23
2019-03-20T07:50:06.799Z,49.77
2019-03-20T07:52:37.461Z,39.80
2019-03-20T07:55:05.974Z,33.90
2019-03-20T07:57:36.842Z,33.07
2019-03-20T08:00:08.973Z,34.27
2019-03-20T08:02:40.027Z,32.47
2019-03-20T08:05:10.975Z,32.63
2019-03-20T08:07:39.537Z,33.10
2019-03-20T08:10:09.552Z,30.83
2019-03-20T08:12:40.361Z,27.70
2019-03-20T08:15:10.396Z,18.40
2019-03-20T08:17:38.630Z,21.83
2019-03-20T08:20:08.604Z,15.87
2019-03-20T08:22:39.524Z,20.53
2019-03-20T08:25:08.672Z,22.47
2019-03-20T08:27:39.293Z,23.80
2019-03-20T08:30:13.981Z,18.73
2019-03-20T08:32:44.730Z,12.97
2019-03-20T08:35:13.493Z,18.17
2019-03-20T08:37:41.985Z,17.20
2019-03-20T08:40:14.511Z,15.83
2019-03-20T08:42:47.928Z,17.50
2019-03-20T08:45:18.994Z,16.70
2019-03-20T08:47:47.648Z,15.07
2019-03-20T08:50:24.976Z,17.03
2019-03-20T08:52:55.765Z,16.77
2019-03-20T08:55:28.759Z,18.80
2019-03-20T08:58:01.770Z,13.63
2019-03-20T09:00:34.970Z,15.83
2019-03-20T09:03:03.193Z,14.67
2019-03-20T09:05:31.510Z,23.80
2019-03-20T09:08:04.203Z,18.33
2019-03-20T09:10:34.808Z,14.90
2019-03-20T09:13:05.466Z,20.07
2019-03-20T09:15:33.934Z,15.63
2019-03-20T09:18:04.404Z,14.77
2019-03-20T09:20:32.923Z,12.37
2019-03-20T09:23:04.088Z,13.53
2019-03-20T09:25:35.037Z,14.13
2019-03-20T09:28:06.358Z,17.20
2019-03-20T09:30:36.985Z,15.23
2019-03-20T09:33:05.397Z,15.90
2019-03-20T09:35:34.214Z,15.63
2019-03-20T09:38:02.583Z,17.67
2019-03-20T09:40:33.047Z,18.53
2019-03-20T09:43:01.574Z,15.70
2019-03-20T09:45:35.431Z,16.30
2019-03-20T09:48:06.038Z,18.40
2019-03-20T09:50:37.804Z,14.27
2019-03-20T09:53:15.761Z,29.43
2019-03-20T09:55:46.840Z,26.20
2019-03-20T09:58:17.572Z,20.20
2019-03-20T10:00:55.072Z,16.63
2019-03-20T10:03:23.536Z,16.33
2019-03-20T10:05:55.006Z,20.33
2019-03-20T10:08:25.523Z,20.13
2019-03-20T10:10:56.114Z,20.27
2019-03-20T10:13:24.300Z,16.50
2019-03-20T10:15:54.867Z,17.53
2019-03-20T10:18:23.097Z,20.70
2019-03-20T10:20:53.526Z,19.93
2019-03-20T10:23:23.939Z,17.97
2019-03-20T10:25:54.675Z,18.73
2019-03-20T10:28:25.652Z,19.27
2019-03-20T10:30:54.287Z,16.57
2019-03-20T10:33:27.322Z,19.83
2019-03-20T10:35:58.283Z,18.80
2019-03-20T10:38:26.855Z,15.83
2019-03-20T10:40:57.532Z,14.20
2019-03-20T10:43:25.746Z,14.73
2019-03-20T10:45:54.003Z,13.13
2019-03-20T10:48:25.199Z,12.50
2019-03-20T10:50:53.334Z,13.47
2019-03-20T10:53:25.182Z,10.13
2019-03-20T10:55:56.248Z,13.30
2019-03-20T10:58:27.010Z,14.20
2019-03-20T11:00:57.414Z,9.97
2019-03-20T11:03:26.049Z,11.63
2019-03-20T11:05:54.587Z,10.37
2019-03-20T11:08:27.244Z,18.17
2019-03-20T11:10:56.162Z,10.83
2019-03-20T11:13:24.668Z,36.27
2019-03-20T11:15:53.140Z,24.83
2019-03-20T11:18:23.849Z,16.37
2019-03-20T11:20:54.403Z,13.17
2019-03-20T11:23:24.948Z,9.40
2019-03-20T11:25:53.135Z,13.77
2019-03-20T11:28:21.282Z,13.40
2019-03-20T11:30:51.987Z,12.23
2019-03-20T11:33:20.262Z,11.00
2019-03-20T11:35:48.723Z,11.43
2019-03-20T11:38:16.920Z,12.53
2019-03-20T11:40:45.396Z,10.57
2019-03-20T11:43:13.537Z,12.07
2019-03-20T11:45:42.096Z,8.87
2019-03-20T11:48:10.421Z,11.83
2019-03-20T11:50:39.326Z,8.10
2019-03-20T11:53:10.111Z,15.27
2019-03-20T11:55:39.196Z,22.50
2019-03-20T11:58:09.852Z,9.13
2019-03-20T12:00:38.232Z,9.07
2019-03-20T12:03:06.745Z,10.27
2019-03-20T12:05:34.988Z,12.27
2019-03-20T12:08:03.478Z,10.03
2019-03-20T12:10:32.755Z,10.70
2019-03-20T12:13:07.847Z,10.33
2019-03-20T12:15:36.228Z,10.40
2019-03-20T12:18:07.041Z,13.07
2019-03-20T12:20:35.582Z,10.97
2019-03-20T12:23:06.167Z,13.03
2019-03-20T12:25:40.150Z,11.67
2019-03-20T12:28:10.992Z,10.80
2019-03-20T12:30:41.518Z,17.33
2019-03-20T12:33:14.568Z,13.63
2019-03-20T12:35:47.317Z,10.73
2019-03-20T12:38:15.670Z,12.13
2019-03-20T12:40:46.920Z,81.13
2019-03-20T12:43:17.508Z,14.17
2019-03-20T12:45:46.745Z,28.13
2019-03-20T12:48:18.738Z,15.57
2019-03-20T12:50:47.409Z,29.37
2019-03-20T12:53:19.733Z,17.27
2019-03-20T12:55:48.030Z,11.37
2019-03-20T12:58:20.831Z,9.77
2019-03-20T13:00:51.190Z,13.90
2019-03-20T13:03:24.951Z,18.10
2019-03-20T13:05:53.432Z,14.53
2019-03-20T13:08:58.352Z,14.53
2019-03-20T13:11:27.255Z,13.67
2019-03-20T13:13:57.659Z,15.67
2019-03-20T13:16:31.812Z,13.30
2019-03-20T13:19:02.416Z,12.83
2019-03-20T13:21:35.301Z,14.27
2019-03-20T13:24:06.141Z,11.10
2019-03-20T13:26:34.275Z,14.03
2019-03-20T13:29:04.816Z,10.53
2019-03-20T13:31:33.020Z,11.30
2019-03-20T13:34:05.503Z,10.63
2019-03-20T13:36:33.979Z,12.87
2019-03-20T13:39:02.391Z,12.20
2019-03-20T13:41:33.131Z,12.20
2019-03-20T13:44:03.580Z,10.37
2019-03-20T13:46:31.784Z,15.10
2019-03-20T13:49:04.491Z,20.70
2019-03-20T13:51:32.719Z,21.97
2019-03-20T13:54:01.074Z,23.00
2019-03-20T13:56:31.781Z,22.17
2019-03-20T13:59:02.049Z,40.30
2019-03-20T14:01:31.239Z,24.17
2019-03-20T14:04:02.009Z,43.07
2019-03-20T14:06:32.304Z,24.03
2019-03-20T14:09:02.871Z,26.00
2019-03-20T14:11:37.879Z,20.37
2019-03-20T14:14:08.584Z,23.33
2019-03-20T14:16:39.633Z,152.20
2019-03-20T14:19:10.687Z,61.80
2019-03-20T14:21:39.561Z,42.87
2019-03-20T14:24:07.893Z,26.83
2019-03-20T14:26:36.081Z,34.40
2019-03-20T14:29:04.280Z,54.53
2019-03-20T14:31:34.628Z,27.33
2019-03-20T14:34:05.289Z,21.30
2019-03-20T14:36:33.737Z,21.83
2019-03-20T14:39:05.967Z,20.90
2019-03-20T14:41:34.592Z,27.53
2019-03-20T14:44:09.415Z,17.90
2019-03-20T14:46:40.028Z,18.50
2019-03-20T14:49:14.825Z,15.63
2019-03-20T14:51:46.017Z,12.33
2019-03-20T14:54:14.481Z,14.90
2019-03-20T14:56:43.287Z,17.33
2019-03-20T14:59:11.604Z,16.00
2019-03-20T15:01:42.578Z,13.93
2019-03-20T15:04:13.978Z,15.80
2019-03-20T15:06:42.558Z,14.77
2019-03-20T15:09:13.622Z,19.77
2019-03-20T15:11:48.218Z,20.07
2019-03-20T15:14:16.375Z,17.13
2019-03-20T15:16:46.968Z,16.57
2019-03-20T15:19:19.962Z,17.07
2019-03-20T15:21:50.425Z,24.27
2019-03-20T15:24:19.085Z,17.77
2019-03-20T15:26:53.951Z,18.70
2019-03-20T15:29:26.688Z,16.13
2019-03-20T15:31:55.263Z,19.47
2019-03-20T15:34:23.755Z,19.37
2019-03-20T15:36:54.185Z,17.57
2019-03-20T15:39:26.937Z,22.63
2019-03-20T15:41:57.355Z,15.63
2019-03-20T15:44:27.902Z,16.43
2019-03-20T15:46:58.840Z,17.07
2019-03-20T15:49:27.484Z,19.57
2019-03-20T15:51:55.896Z,21.43
2019-03-20T15:54:24.948Z,18.17
2019-03-20T15:56:53.345Z,18.70
2019-03-20T15:59:23.906Z,19.70
2019-03-20T16:01:52.094Z,17.67
2019-03-20T16:04:24.727Z,19.13
2019-03-20T16:06:56.309Z,20.10
2019-03-20T16:09:29.518Z,25.03
2019-03-20T16:12:00.152Z,22.53
2019-03-20T16:14:28.338Z,48.40
2019-03-20T16:16:56.823Z,62.23
2019-03-20T16:19:28.972Z,85.97
2019-03-20T16:21:59.606Z,71.60
2019-03-20T16:24:27.838Z,63.53
2019-03-20T16:26:58.487Z,89.77
2019-03-20T16:29:32.202Z,71.20
2019-03-20T16:32:00.674Z,116.10
2019-03-20T16:34:29.373Z,153.10
2019-03-20T16:36:57.555Z,152.77
2019-03-20T16:39:29.135Z,133.00
2019-03-20T16:41:57.672Z,121.53
2019-03-20T16:44:25.838Z,100.87
2019-03-20T16:46:54.418Z,108.80
2019-03-20T16:49:24.937Z,127.07
2019-03-20T16:51:53.513Z,115.70
2019-03-20T16:54:24.148Z,91.80
2019-03-20T16:56:52.732Z,95.90
2019-03-20T16:59:23.363Z,99.23
2019-03-20T17:01:56.070Z,82.10
2019-03-20T17:04:26.692Z,71.10
2019-03-20T17:06:54.829Z,95.47
2019-03-20T17:09:26.472Z,103.50
2019-03-20T17:11:55.108Z,146.07
2019-03-20T17:14:26.144Z,162.80
2019-03-20T17:16:56.733Z,173.97
2019-03-20T17:19:29.312Z,162.63
2019-03-20T17:21:57.902Z,196.00
2019-03-20T17:24:28.482Z,182.27
2019-03-20T17:26:56.936Z,176.20
2019-03-20T17:29:27.785Z,176.87
2019-03-20T17:31:55.975Z,197.70
2019-03-20T17:34:24.257Z,190.80
2019-03-20T17:36:54.893Z,188.73
2019-03-20T17:39:23.446Z,150.67
2019-03-20T17:41:54.045Z,142.80
2019-03-20T17:44:22.422Z,148.37
2019-03-20T17:46:52.961Z,142.10
2019-03-20T17:49:21.633Z,140.67
2019-03-20T17:51:49.911Z,151.30
2019-03-20T17:54:18.421Z,174.20
2019-03-20T17:56:47.093Z,184.57
2019-03-20T17:59:15.550Z,212.40
2019-03-20T18:01:46.708Z,214.07
2019-03-20T18:04:17.620Z,196.60
2019-03-20T18:06:48.349Z,215.80
2019-03-20T18:09:21.401Z,205.27
2019-03-20T18:11:50.693Z,218.57
2019-03-20T18:14:18.929Z,222.50
2019-03-20T18:16:49.321Z,197.43
2019-03-20T18:19:17.469Z,199.20
2019-03-20T18:21:48.179Z,201.53
2019-03-20T18:24:18.822Z,166.30
2019-03-20T18:26:47.493Z,149.53
2019-03-20T18:29:18.221Z,183.90
2019-03-20T18:31:46.837Z,178.20
2019-03-20T18:34:15.183Z,174.27
2019-03-20T18:36:43.395Z,132.37
2019-03-20T18:39:11.942Z,128.17
2019-03-20T18:41:42.604Z,139.37
2019-03-20T18:44:10.924Z,143.73
2019-03-20T18:46:43.913Z,139.03
2019-03-20T18:49:12.185Z,129.63
2019-03-20T18:51:40.608Z,121.40
2019-03-20T18:54:09.113Z,121.20
2019-03-20T18:56:40.307Z,123.43
2019-03-20T18:59:09.404Z,116.30
2019-03-20T19:01:40.132Z,121.27
2019-03-20T19:04:08.277Z,130.97
2019-03-20T19:06:38.564Z,120.53
2019-03-20T19:09:08.847Z,94.20
2019-03-20T19:11:37.552Z,102.67
2019-03-20T19:14:09.065Z,89.33
2019-03-20T19:16:40.021Z,108.73
2019-03-20T19:19:12.410Z,124.33
2019-03-20T19:21:43.034Z,173.90
2019-03-20T19:24:11.415Z,113.23
2019-03-20T19:26:39.896Z,115.03
2019-03-20T19:29:08.105Z,132.37
2019-03-20T19:31:39.106Z,180.20
2019-03-20T19:34:09.554Z,396.83
2019-03-20T19:36:37.981Z,393.07
2019-03-20T19:39:06.669Z,480.10
2019-03-20T19:41:34.956Z,703.10
2019-03-20T19:44:05.620Z,509.37
2019-03-20T19:46:38.360Z,501.63
2019-03-20T19:49:11.275Z,489.17
2019-03-20T19:51:39.454Z,474.73
2019-03-20T19:54:08.213Z,232.10
2019-03-20T19:56:36.518Z,169.50
2019-03-20T19:59:06.997Z,193.10
2019-03-20T20:01:35.207Z,190.97
2019-03-20T20:04:03.446Z,152.47
2019-03-20T20:06:34.403Z,97.33
2019-03-20T20:09:06.250Z,82.73
2019-03-20T20:11:34.442Z,86.80
2019-03-20T20:14:04.891Z,149.23
2019-03-20T20:16:34.348Z,142.50
2019-03-20T20:19:04.601Z,177.13
2019-03-20T20:21:32.779Z,122.47
2019-03-20T20:24:03.665Z,129.23
2019-03-20T20:26:31.820Z,137.33
2019-03-20T20:29:00.147Z,126.47
2019-03-20T20:31:32.906Z,152.53
2019-03-20T20:34:03.511Z,134.80
2019-03-20T20:36:31.676Z,131.00
2019-03-20T20:39:02.396Z,156.37
2019-03-20T20:41:30.560Z,178.13
2019-03-20T20:44:00.937Z,187.40
2019-03-20T20:46:31.468Z,187.93
2019-03-20T20:49:02.326Z,187.07
2019-03-20T20:51:30.460Z,174.50
2019-03-20T20:54:01.201Z,162.53
2019-03-20T20:56:31.799Z,135.67
2019-03-20T20:59:02.466Z,133.63
2019-03-20T21:01:30.926Z,137.60
2019-03-20T21:04:01.576Z,123.70
2019-03-20T21:06:32.119Z,130.17
2019-03-20T21:09:00.357Z,109.97
2019-03-20T21:11:30.947Z,135.00
2019-03-20T21:13:59.145Z,138.37
2019-03-20T21:16:27.562Z,121.43
2019-03-20T21:18:58.703Z,123.37
2019-03-20T21:21:31.404Z,117.60
2019-03-20T21:24:19.922Z,124.43
2019-03-20T21:27:07.130Z,137.47
2019-03-20T21:29:51.623Z,131.00
2019-03-20T21:32:38.941Z,149.30
2019-03-20T21:35:09.155Z,178.23
2019-03-20T21:37:55.516Z,129.10
2019-03-20T21:40:23.732Z,204.20
2019-03-20T21:43:06.330Z,188.63
2019-03-20T21:45:33.078Z,172.13
2019-03-20T21:48:01.359Z,164.73
2019-03-20T21:50:35.488Z,207.33
2019-03-20T21:53:03.705Z,183.77
2019-03-20T21:55:50.199Z,295.00
2019-03-20T21:58:24.645Z,231.97
2019-03-20T22:01:12.593Z,347.03
2019-03-20T22:03:43.900Z,272.77
2019-03-20T22:06:30.157Z,261.30
2019-03-20T22:09:00.546Z,239.67
2019-03-20T22:11:30.600Z,215.83
2019-03-20T22:14:02.819Z,192.87
2019-03-20T22:16:51.737Z,173.93
2019-03-20T22:19:24.431Z,183.87
2019-03-20T22:21:55.416Z,222.17
2019-03-20T22:24:34.183Z,223.83
2019-03-20T22:27:19.033Z,142.53
2019-03-20T22:29:47.237Z,110.80
2019-03-20T22:32:19.410Z,97.60
2019-03-20T22:34:51.730Z,92.97
2019-03-20T22:37:20.206Z,70.50
2019-03-20T22:40:05.457Z,62.13
2019-03-20T22:42:43.647Z,66.97
2019-03-20T22:45:14.124Z,67.03
2019-03-20T22:47:59.228Z,67.40
2019-03-20T22:50:36.668Z,81.03
2019-03-20T22:53:09.201Z,103.53
2019-03-20T22:55:41.782Z,104.50
2019-03-20T22:58:21.338Z,127.90
2019-03-20T23:00:51.236Z,84.03
2019-03-20T23:03:26.446Z,100.10
2019-03-20T23:05:54.591Z,97.07
2019-03-20T23:08:25.195Z,93.73
2019-03-20T23:10:53.373Z,92.40
2019-03-20T23:13:23.853Z,84.90
2019-03-20T23:15:54.328Z,102.00
2019-03-20T23:18:22.494Z,98.97
2019-03-20T23:20:52.857Z,102.13
2019-03-20T23:23:24.249Z,99.73
2019-03-20T23:25:54.709Z,106.63
2019-03-20T23:28:29.243Z,93.13
2019-03-20T23:30:59.490Z,94.03
2019-03-20T23:33:27.703Z,106.73
2019-03-20T23:35:55.982Z,97.23
2019-03-20T23:38:28.577Z,102.53
2019-03-20T23:40:58.550Z,93.57
2019-03-20T23:43:26.757Z,87.53
2019-03-20T23:45:59.131Z,85.70
2019-03-20T23:48:31.808Z,88.30
2019-03-20T23:51:01.625Z,85.83
2019-03-20T23:53:30.685Z,83.67
2019-03-20T23:55:58.879Z,68.73
2019-03-20T23:58:27.066Z,76.97
